Time;durP1;ratioP1;P1;durP2;ratioP2;P2;SDS_P1;SDS_P2;PMS_P1;PMS_P2;Temp;Humidity;BMP_temperature;BMP_pressure;BME280_temperature;BME280_humidity;BME280_pressure;Samples;Min_cycle;Max_cycle;Signal;HPM_P1;HPM_P2
2022/05/26 00:01:16;;;;;;;;;;;20.40;50.60;;;;;;5056084;28;19929;-75
2022/05/26 00:03:44;;;;;;;;;;;20.40;50.80;;;;;;5054209;28;19929;-76
2022/05/26 00:06:12;;;;;;;;;;;20.40;50.80;;;;;;5054460;28;19933;-77
2022/05/26 00:08:39;;;;;;;;;;;20.40;50.80;;;;;;5054754;28;19939;-74
2022/05/26 00:11:07;;;;;;;;;;;20.30;50.80;;;;;;5056505;28;20462;-75
2022/05/26 00:13:34;;;;;;;;;;;20.30;50.90;;;;;;5056270;28;19925;-76
2022/05/26 00:16:01;;;;;;;;;;;20.30;51.10;;;;;;5049545;28;19933;-77
2022/05/26 00:18:28;;;;;;;;;;;20.30;50.90;;;;;;5050834;28;19933;-73
2022/05/26 00:20:54;;;;;;;;;;;20.30;50.90;;;;;;5060351;28;19940;-74
2022/05/26 00:23:22;;;;;;;;;;;20.20;50.80;;;;;;5053541;28;19939;-75
2022/05/26 00:25:49;;;;;;;;;;;20.20;50.90;;;;;;5061906;28;19936;-75
2022/05/26 00:28:15;;;;;;;;;;;20.20;51.00;;;;;;5058232;28;19925;-75
2022/05/26 00:30:42;;;;;;;;;;;20.20;51.10;;;;;;5051681;28;19928;-74
2022/05/26 00:33:09;;;;;;;;;;;20.20;51.10;;;;;;5052081;28;20476;-76
2022/05/26 00:35:36;;;;;;;;;;;20.10;51.00;;;;;;5057200;28;19932;-73
2022/05/26 00:38:03;;;;;;;;;;;20.10;51.20;;;;;;5057920;28;19929;-72
2022/05/26 00:40:32;;;;;;;;;;;20.10;51.20;;;;;;5056460;28;20007;-74
2022/05/26 00:42:58;;;;;;;;;;;20.10;51.30;;;;;;5051786;28;20269;-73
2022/05/26 00:45:25;;;;;;;;;;;20.00;51.30;;;;;;5054133;28;19940;-75
2022/05/26 00:47:52;;;;;;;;;;;20.00;51.30;;;;;;5056704;28;20007;-74
2022/05/26 00:50:20;;;;;;;;;;;20.00;51.40;;;;;;5058495;28;19929;-73
2022/05/26 00:52:48;;;;;;;;;;;20.00;51.30;;;;;;5054889;28;19935;-73
2022/05/26 00:55:16;;;;;;;;;;;20.00;51.30;;;;;;5047231;28;19929;-73
2022/05/26 00:57:46;;;;;;;;;;;20.00;51.30;;;;;;5051282;28;19936;-75
2022/05/26 01:00:14;;;;;;;;;;;19.90;51.40;;;;;;5055408;28;20011;-76
2022/05/26 01:02:43;;;;;;;;;;;19.90;51.50;;;;;;5054485;28;19939;-75
2022/05/26 01:05:12;;;;;;;;;;;19.90;51.50;;;;;;5052195;28;19931;-74
2022/05/26 01:07:39;;;;;;;;;;;19.90;51.60;;;;;;5055441;28;20019;-74
2022/05/26 01:10:07;;;;;;;;;;;19.90;51.70;;;;;;5055737;28;19931;-74
2022/05/26 01:12:33;;;;;;;;;;;19.80;51.80;;;;;;5052064;28;19936;-71
2022/05/26 01:15:03;;;;;;;;;;;19.80;51.80;;;;;;5053242;28;19933;-74
2022/05/26 01:17:33;;;;;;;;;;;19.80;51.80;;;;;;5047616;28;19928;-75
2022/05/26 01:20:16;;;;;;;;;;;19.80;51.80;;;;;;5052369;28;19929;-75
2022/05/26 01:23:04;;;;;;;;;;;19.70;51.80;;;;;;5056087;28;19936;-76
2022/05/26 01:25:45;;;;;;;;;;;19.70;51.80;;;;;;5048635;28;19928;-74
2022/05/26 01:28:16;;;;;;;;;;;19.70;51.80;;;;;;5045900;28;20645;-76
2022/05/26 01:30:50;;;;;;;;;;;19.70;51.80;;;;;;5054388;28;20354;-75
2022/05/26 01:33:31;;;;;;;;;;;19.70;51.90;;;;;;5057902;28;19936;-73
2022/05/26 01:36:02;;;;;;;;;;;19.70;52.10;;;;;;5054988;28;19932;-73
2022/05/26 01:38:35;;;;;;;;;;;19.60;51.90;;;;;;5054632;28;19977;-76
2022/05/26 01:41:08;;;;;;;;;;;19.60;52.10;;;;;;5053632;28;19932;-76
2022/05/26 01:43:40;;;;;;;;;;;19.60;52.20;;;;;;5056551;28;19940;-73
2022/05/26 01:46:10;;;;;;;;;;;19.60;52.40;;;;;;5046186;28;20404;-75
2022/05/26 01:48:43;;;;;;;;;;;19.50;52.40;;;;;;5049430;28;20296;-74
2022/05/26 01:51:13;;;;;;;;;;;19.50;52.40;;;;;;5049274;28;19936;-75
2022/05/26 01:53:44;;;;;;;;;;;19.50;52.60;;;;;;5047301;28;19929;-74
2022/05/26 01:56:16;;;;;;;;;;;19.50;52.60;;;;;;5051213;28;20431;-75
2022/05/26 01:58:44;;;;;;;;;;;19.50;52.50;;;;;;5053630;28;19936;-76
2022/05/26 02:01:12;;;;;;;;;;;19.50;52.60;;;;;;5052138;28;19925;-72
2022/05/26 02:03:42;;;;;;;;;;;19.50;52.60;;;;;;5051442;28;19932;-73
2022/05/26 02:06:15;;;;;;;;;;;19.40;52.70;;;;;;5055972;28;19928;-75
2022/05/26 02:08:43;;;;;;;;;;;19.40;52.60;;;;;;5054334;28;20339;-75
2022/05/26 02:11:12;;;;;;;;;;;19.40;52.60;;;;;;5052863;28;20467;-75
2022/05/26 02:13:41;;;;;;;;;;;19.40;52.70;;;;;;5056309;28;19964;-73
2022/05/26 02:16:10;;;;;;;;;;;19.40;52.80;;;;;;5053544;28;19955;-74
2022/05/26 02:18:39;;;;;;;;;;;19.40;52.80;;;;;;5055180;28;19935;-75
2022/05/26 02:21:09;;;;;;;;;;;19.30;52.90;;;;;;5057928;28;20734;-75
2022/05/26 02:23:38;;;;;;;;;;;19.30;52.90;;;;;;5056352;28;19928;-74
2022/05/26 02:26:05;;;;;;;;;;;19.30;52.80;;;;;;5056035;28;19928;-73
2022/05/26 02:29:51;;;;;;;;;;;19.30;52.90;;;;;;5059435;28;19939;-72
2022/05/26 02:31:20;;;;;;;;;;;19.30;53.00;;;;;;5052926;28;19928;-72
2022/05/26 02:33:46;;;;;;;;;;;19.30;53.10;;;;;;5058954;28;19936;-74
2022/05/26 02:36:15;;;;;;;;;;;19.30;53.00;;;;;;5055847;28;19935;-76
2022/05/26 02:38:42;;;;;;;;;;;19.20;53.10;;;;;;5055055;28;19964;-74
2022/05/26 02:41:09;;;;;;;;;;;19.20;53.20;;;;;;5055493;28;19928;-76
2022/05/26 02:43:35;;;;;;;;;;;19.20;53.10;;;;;;5051698;28;19932;-75
2022/05/26 02:46:07;;;;;;;;;;;19.20;53.20;;;;;;5052915;28;19954;-73
2022/05/26 02:48:46;;;;;;;;;;;19.10;53.30;;;;;;5052967;28;19928;-73
2022/05/26 02:51:16;;;;;;;;;;;19.10;53.50;;;;;;5052339;28;19943;-74
2022/05/26 02:53:46;;;;;;;;;;;19.10;53.30;;;;;;5054285;28;19928;-74
2022/05/26 02:56:15;;;;;;;;;;;19.10;53.40;;;;;;5051453;28;19935;-73
2022/05/26 02:58:49;;;;;;;;;;;19.10;53.60;;;;;;5053461;28;19932;-76
2022/05/26 03:01:20;;;;;;;;;;;19.00;53.50;;;;;;5054667;28;19935;-73
2022/05/26 03:03:49;;;;;;;;;;;19.00;53.60;;;;;;5053069;28;19929;-72
2022/05/26 03:06:17;;;;;;;;;;;19.00;53.60;;;;;;5054952;28;19933;-74
2022/05/26 03:08:45;;;;;;;;;;;19.00;53.70;;;;;;5052656;28;19936;-75
2022/05/26 03:11:13;;;;;;;;;;;19.00;53.70;;;;;;5050286;28;19935;-75
2022/05/26 03:13:40;;;;;;;;;;;19.00;53.80;;;;;;5049624;28;19936;-73
2022/05/26 03:16:07;;;;;;;;;;;18.90;54.00;;;;;;5053392;28;19936;-73
2022/05/26 03:18:33;;;;;;;;;;;18.90;53.80;;;;;;5050735;28;19928;-74
2022/05/26 03:21:00;;;;;;;;;;;18.90;53.90;;;;;;5052067;28;19929;-74
2022/05/26 03:23:27;;;;;;;;;;;18.90;53.90;;;;;;5060475;28;19935;-73
2022/05/26 03:25:57;;;;;;;;;;;18.90;54.00;;;;;;5057228;28;19982;-74
2022/05/26 03:28:23;;;;;;;;;;;18.80;54.10;;;;;;5055851;28;19932;-73
2022/05/26 03:30:50;;;;;;;;;;;18.80;54.10;;;;;;5055485;28;19938;-74
2022/05/26 03:33:17;;;;;;;;;;;18.80;54.20;;;;;;5057923;28;20309;-73
2022/05/26 03:41:09;;;;;;;;;;;18.70;54.40;;;;;;5056417;28;20666;-72
2022/05/26 03:43:38;;;;;;;;;;;18.70;54.50;;;;;;5058315;28;19979;-73
2022/05/26 03:46:05;;;;;;;;;;;18.70;54.60;;;;;;5052127;28;20564;-74
2022/05/26 03:48:31;;;;;;;;;;;18.70;54.60;;;;;;5054003;28;19929;-75
2022/05/26 03:50:59;;;;;;;;;;;18.70;54.80;;;;;;5053650;28;19933;-74
2022/05/26 03:53:25;;;;;;;;;;;18.60;54.70;;;;;;5057053;28;19963;-76
2022/05/26 03:55:52;;;;;;;;;;;18.60;54.70;;;;;;5055926;28;19925;-74
2022/05/26 03:58:20;;;;;;;;;;;18.60;54.60;;;;;;5050911;28;19936;-73
2022/05/26 04:00:46;;;;;;;;;;;18.60;54.90;;;;;;5055862;28;20396;-72
2022/05/26 04:03:13;;;;;;;;;;;18.50;54.80;;;;;;5053061;28;19940;-73
2022/05/26 04:05:40;;;;;;;;;;;18.50;55.00;;;;;;5052073;28;19933;-75
2022/05/26 04:08:07;;;;;;;;;;;18.50;54.90;;;;;;5054094;28;19929;-74
2022/05/26 04:10:33;;;;;;;;;;;18.50;54.50;;;;;;5051970;28;19936;-74
2022/05/26 04:13:00;;;;;;;;;;;18.50;55.00;;;;;;5054964;28;19933;-73
2022/05/26 04:15:28;;;;;;;;;;;18.50;55.00;;;;;;5050686;28;19936;-75
2022/05/26 04:17:54;;;;;;;;;;;18.50;55.00;;;;;;5050360;28;19929;-73
2022/05/26 04:20:22;;;;;;;;;;;18.40;55.00;;;;;;5054905;28;19935;-74
2022/05/26 04:22:49;;;;;;;;;;;18.40;55.10;;;;;;5057704;28;19928;-73
2022/05/26 04:25:17;;;;;;;;;;;18.40;54.80;;;;;;5057213;28;19932;-73
2022/05/26 04:27:44;;;;;;;;;;;18.30;55.00;;;;;;5057194;28;19928;-72
2022/05/26 04:30:12;;;;;;;;;;;18.30;55.40;;;;;;5062341;28;20003;-74
2022/05/26 04:32:40;;;;;;;;;;;18.30;55.60;;;;;;5064242;28;19936;-73
2022/05/26 04:35:07;;;;;;;;;;;18.30;55.60;;;;;;5060226;28;19929;-72
2022/05/26 04:37:33;;;;;;;;;;;18.20;55.80;;;;;;5062681;28;19932;-71
2022/05/26 04:40:00;;;;;;;;;;;18.20;55.70;;;;;;5061234;28;19933;-73
2022/05/26 04:42:27;;;;;;;;;;;18.20;55.70;;;;;;5056820;28;19932;-73
2022/05/26 04:44:54;;;;;;;;;;;18.20;55.90;;;;;;5056640;28;19925;-71
2022/05/26 04:47:21;;;;;;;;;;;18.20;55.80;;;;;;5062194;28;19978;-73
2022/05/26 04:49:49;;;;;;;;;;;18.20;56.00;;;;;;5062036;28;20039;-76
2022/05/26 04:52:17;;;;;;;;;;;18.10;55.90;;;;;;5058874;28;19935;-73
2022/05/26 04:54:44;;;;;;;;;;;18.10;55.90;;;;;;5055964;28;19925;-74
2022/05/26 04:57:11;;;;;;;;;;;18.10;56.00;;;;;;5059239;28;19932;-74
2022/05/26 04:59:38;;;;;;;;;;;18.10;56.10;;;;;;5055881;28;20400;-73
2022/05/26 05:02:05;;;;;;;;;;;18.10;56.20;;;;;;5055625;28;19929;-72
2022/05/26 05:04:31;;;;;;;;;;;18.10;56.40;;;;;;5054837;28;19981;-72
2022/05/26 05:06:59;;;;;;;;;;;18.10;56.30;;;;;;5056740;28;19928;-74
2022/05/26 05:09:26;;;;;;;;;;;18.10;56.30;;;;;;5056360;28;19932;-73
2022/05/26 05:11:52;;;;;;;;;;;18.10;56.30;;;;;;5060522;28;19935;-71
2022/05/26 05:14:19;;;;;;;;;;;18.00;56.40;;;;;;5053837;28;19939;-71
2022/05/26 05:16:47;;;;;;;;;;;18.00;56.40;;;;;;5056218;28;19931;-73
2022/05/26 05:19:14;;;;;;;;;;;18.00;56.50;;;;;;5063955;28;19932;-75
2022/05/26 05:21:42;;;;;;;;;;;18.00;56.50;;;;;;5054206;28;19935;-77
2022/05/26 05:24:16;;;;;;;;;;;18.00;56.60;;;;;;5057075;28;19929;-73
2022/05/26 05:26:45;;;;;;;;;;;18.00;56.60;;;;;;5057399;28;19935;-76
2022/05/26 05:29:15;;;;;;;;;;;18.00;56.70;;;;;;5058115;28;20017;-76
2022/05/26 05:31:44;;;;;;;;;;;18.00;56.60;;;;;;5057675;28;20022;-75
2022/05/26 05:34:13;;;;;;;;;;;18.00;56.70;;;;;;5062607;28;19939;-76
2022/05/26 05:36:40;;;;;;;;;;;17.90;56.80;;;;;;5064098;28;19928;-72
2022/05/26 05:39:07;;;;;;;;;;;17.90;56.70;;;;;;5060957;28;19935;-74
2022/05/26 05:41:35;;;;;;;;;;;17.90;56.80;;;;;;5064156;28;19936;-72
2022/05/26 05:44:03;;;;;;;;;;;17.90;56.90;;;;;;5061368;28;19940;-75
2022/05/26 05:46:34;;;;;;;;;;;18.00;56.90;;;;;;5061919;28;19943;-74
2022/05/26 05:49:01;;;;;;;;;;;18.00;56.90;;;;;;5059372;28;19928;-74
2022/05/26 05:51:28;;;;;;;;;;;18.00;57.10;;;;;;5053817;28;20605;-74
2022/05/26 05:53:55;;;;;;;;;;;17.90;57.00;;;;;;5055831;28;19936;-73
2022/05/26 05:56:21;;;;;;;;;;;17.90;57.10;;;;;;5055143;28;20510;-75
2022/05/26 05:58:50;;;;;;;;;;;17.90;57.10;;;;;;5062658;28;19931;-74
2022/05/26 06:01:16;;;;;;;;;;;17.90;57.20;;;;;;5057545;28;19968;-73
2022/05/26 06:03:43;;;;;;;;;;;17.90;57.20;;;;;;5061161;28;19929;-74
2022/05/26 06:06:10;;;;;;;;;;;17.90;57.10;;;;;;5063248;28;19932;-72
2022/05/26 06:08:37;;;;;;;;;;;17.90;57.10;;;;;;5058652;28;19928;-75
2022/05/26 06:11:04;;;;;;;;;;;17.90;57.10;;;;;;5062219;28;19932;-74
2022/05/26 06:13:30;;;;;;;;;;;17.90;57.20;;;;;;5059360;28;19929;-73
2022/05/26 06:15:59;;;;;;;;;;;17.90;57.20;;;;;;5070903;28;19932;-74
2022/05/26 06:18:26;;;;;;;;;;;18.00;57.30;;;;;;5072606;28;19997;-74
2022/05/26 06:21:00;;;;;;;;;;;18.00;57.40;;;;;;5070291;28;19952;-73
2022/05/26 06:23:27;;;;;;;;;;;18.00;57.40;;;;;;5084342;28;19950;-73
2022/05/26 06:25:53;;;;;;;;;;;18.00;57.50;;;;;;5083350;28;19928;-71
2022/05/26 06:31:05;;;;;;;;;;;18.00;57.60;;;;;;5072785;28;19927;-73
2022/05/26 06:39:00;;;;;;;;;;;18.00;57.60;;;;;;5078232;28;19969;-74
2022/05/26 06:44:11;;;;;;;;;;;18.00;57.70;;;;;;5072374;28;19989;-74
2022/05/26 06:46:39;;;;;;;;;;;18.00;57.70;;;;;;5076716;28;20345;-73
2022/05/26 06:49:06;;;;;;;;;;;18.00;57.70;;;;;;5074644;28;19997;-73
2022/05/26 06:51:36;;;;;;;;;;;18.00;57.70;;;;;;5074534;28;19928;-75
2022/05/26 06:54:03;;;;;;;;;;;18.00;57.80;;;;;;5072618;28;19928;-73
2022/05/26 06:56:29;;;;;;;;;;;18.00;57.80;;;;;;5077867;28;19920;-75
2022/05/26 06:58:56;;;;;;;;;;;18.00;57.80;;;;;;5077618;28;19928;-74
2022/05/26 07:01:23;;;;;;;;;;;18.10;57.90;;;;;;5079781;28;19932;-72
2022/05/26 07:03:50;;;;;;;;;;;18.10;57.90;;;;;;5078128;28;20636;-73
2022/05/26 07:06:18;;;;;;;;;;;18.10;57.90;;;;;;5075415;28;19936;-72
2022/05/26 07:08:45;;;;;;;;;;;18.10;58.00;;;;;;5071540;28;19936;-73
2022/05/26 07:11:12;;;;;;;;;;;18.10;58.00;;;;;;5070523;28;19932;-73
2022/05/26 07:13:39;;;;;;;;;;;18.10;58.00;;;;;;5068553;28;19998;-74
2022/05/26 07:16:05;;;;;;;;;;;18.10;58.10;;;;;;5073361;28;20884;-73
2022/05/26 07:18:32;;;;;;;;;;;18.10;58.00;;;;;;5075556;28;19936;-72
2022/05/26 07:21:02;;;;;;;;;;;18.10;58.10;;;;;;5074324;28;20048;-74
2022/05/26 07:23:29;;;;;;;;;;;18.10;58.10;;;;;;5076424;28;19935;-77
2022/05/26 07:25:56;;;;;;;;;;;18.10;58.00;;;;;;5079632;28;20384;-72
2022/05/26 07:28:24;;;;;;;;;;;18.10;58.10;;;;;;5076924;28;19935;-72
2022/05/26 07:30:52;;;;;;;;;;;18.20;58.10;;;;;;5075116;28;19963;-75
2022/05/26 07:33:19;;;;;;;;;;;18.10;58.10;;;;;;5078701;28;19928;-73
2022/05/26 07:35:46;;;;;;;;;;;18.20;58.20;;;;;;5076329;28;19928;-75
2022/05/26 07:41:17;;;;;;;;;;;18.20;58.20;;;;;;5057021;28;20541;-74
2022/05/26 07:43:46;;;;;;;;;;;18.20;58.10;;;;;;5074733;28;19936;-75
2022/05/26 07:46:12;;;;;;;;;;;18.30;58.10;;;;;;5072509;28;19928;-75
2022/05/26 07:48:39;;;;;;;;;;;18.30;58.10;;;;;;5078450;28;19928;-75
2022/05/26 07:51:06;;;;;;;;;;;18.30;58.10;;;;;;5070455;28;19928;-74
2022/05/26 07:53:33;;;;;;;;;;;18.30;58.10;;;;;;5072590;28;19935;-76
2022/05/26 07:56:02;;;;;;;;;;;18.30;58.10;;;;;;5078759;28;19928;-75
2022/05/26 07:58:28;;;;;;;;;;;18.30;58.10;;;;;;5075621;28;19932;-73
2022/05/26 08:00:55;;;;;;;;;;;18.30;58.10;;;;;;5077490;28;20284;-74
2022/05/26 08:03:21;;;;;;;;;;;18.30;58.10;;;;;;5070361;28;19932;-73
2022/05/26 08:05:48;;;;;;;;;;;18.30;58.10;;;;;;5073308;28;19935;-74
2022/05/26 08:08:15;;;;;;;;;;;18.30;58.10;;;;;;5081726;28;20434;-74
2022/05/26 08:10:43;;;;;;;;;;;18.40;58.20;;;;;;5077768;28;19967;-76
2022/05/26 08:13:09;;;;;;;;;;;18.30;58.10;;;;;;5075103;28;20114;-76
2022/05/26 08:15:36;;;;;;;;;;;18.40;58.20;;;;;;5071713;28;20554;-74
2022/05/26 08:18:03;;;;;;;;;;;18.40;58.20;;;;;;5073611;28;19939;-75
2022/05/26 08:20:30;;;;;;;;;;;18.40;58.20;;;;;;5069176;28;19928;-75
2022/05/26 08:22:56;;;;;;;;;;;18.40;58.20;;;;;;5071564;28;19928;-75
2022/05/26 08:25:23;;;;;;;;;;;18.40;58.30;;;;;;5076765;28;19928;-75
2022/05/26 08:27:51;;;;;;;;;;;18.40;58.40;;;;;;5073976;28;19928;-77
2022/05/26 08:30:18;;;;;;;;;;;18.40;58.40;;;;;;5075185;28;19961;-74
2022/05/26 08:32:44;;;;;;;;;;;18.40;58.40;;;;;;5071851;28;19939;-75
2022/05/26 08:35:12;;;;;;;;;;;18.50;58.50;;;;;;5076146;28;19975;-73
2022/05/26 08:37:39;;;;;;;;;;;18.50;58.50;;;;;;5075582;28;20019;-77
2022/05/26 08:40:06;;;;;;;;;;;18.50;58.50;;;;;;5081513;28;19932;-74
2022/05/26 08:42:34;;;;;;;;;;;18.50;58.50;;;;;;5068959;28;20132;-75
2022/05/26 08:45:05;;;;;;;;;;;18.50;58.50;;;;;;5079573;28;19928;-74
2022/05/26 08:47:34;;;;;;;;;;;18.50;58.60;;;;;;5073317;28;19932;-76
2022/05/26 08:50:02;;;;;;;;;;;18.60;58.60;;;;;;5082542;28;20586;-75
2022/05/26 08:52:31;;;;;;;;;;;18.50;58.50;;;;;;5075744;28;19928;-74
2022/05/26 08:55:01;;;;;;;;;;;18.60;58.60;;;;;;5077589;28;20489;-74
2022/05/26 08:57:32;;;;;;;;;;;18.60;58.60;;;;;;5076183;28;19928;-75
2022/05/26 08:59:58;;;;;;;;;;;18.60;58.60;;;;;;5075832;28;20389;-75
2022/05/26 09:02:27;;;;;;;;;;;18.60;58.60;;;;;;5077476;28;20600;-75
2022/05/26 09:04:55;;;;;;;;;;;18.60;58.60;;;;;;5077546;28;19928;-72
2022/05/26 09:12:59;;;;;;;;;;;18.70;58.60;;;;;;5072338;28;20048;-75
2022/05/26 09:15:27;;;;;;;;;;;18.70;58.70;;;;;;5074894;28;19980;-74
2022/05/26 09:17:55;;;;;;;;;;;18.70;58.60;;;;;;5073804;28;19936;-74
2022/05/26 09:20:28;;;;;;;;;;;18.80;58.60;;;;;;5075271;28;20213;-74
2022/05/26 09:22:54;;;;;;;;;;;18.80;58.60;;;;;;5079500;28;19928;-75
2022/05/26 09:25:33;;;;;;;;;;;18.80;58.50;;;;;;5076500;28;19932;-75
2022/05/26 09:28:01;;;;;;;;;;;18.80;58.50;;;;;;5072384;28;20315;-75
2022/05/26 09:30:29;;;;;;;;;;;18.80;58.60;;;;;;5068931;28;19932;-75
2022/05/26 09:32:57;;;;;;;;;;;18.80;58.60;;;;;;5069645;28;20038;-74
2022/05/26 09:35:26;;;;;;;;;;;18.90;58.60;;;;;;5075873;28;19935;-73
2022/05/26 09:37:53;;;;;;;;;;;18.90;58.90;;;;;;5076175;28;20021;-75
2022/05/26 09:40:22;;;;;;;;;;;18.90;58.90;;;;;;5075382;28;20011;-75
2022/05/26 09:42:51;;;;;;;;;;;18.90;59.10;;;;;;5071532;28;19935;-74
2022/05/26 09:45:19;;;;;;;;;;;18.90;59.50;;;;;;5063109;28;19928;-74
2022/05/26 09:47:53;;;;;;;;;;;18.90;59.20;;;;;;5070249;28;19928;-76
2022/05/26 09:50:38;;;;;;;;;;;19.00;59.60;;;;;;5068799;28;19943;-75
2022/05/26 09:53:08;;;;;;;;;;;19.00;60.00;;;;;;5069296;28;19961;-75
2022/05/26 09:55:41;;;;;;;;;;;19.00;59.70;;;;;;5068149;28;19928;-74
2022/05/26 09:58:09;;;;;;;;;;;19.00;59.80;;;;;;5073892;28;19932;-75
2022/05/26 10:00:37;;;;;;;;;;;19.00;60.10;;;;;;5073381;28;19932;-75
2022/05/26 10:03:06;;;;;;;;;;;19.00;60.20;;;;;;5072924;28;19931;-74
2022/05/26 10:05:37;;;;;;;;;;;19.00;60.60;;;;;;5068926;28;19928;-75
2022/05/26 10:08:09;;;;;;;;;;;19.00;60.50;;;;;;5071215;28;19936;-75
2022/05/26 10:10:39;;;;;;;;;;;19.00;59.90;;;;;;5073842;28;20394;-76
2022/05/26 10:13:11;;;;;;;;;;;19.00;59.80;;;;;;5081705;28;20255;-74
2022/05/26 10:15:44;;;;;;;;;;;19.00;60.00;;;;;;5071107;28;20036;-78
2022/05/26 10:18:18;;;;;;;;;;;19.10;60.00;;;;;;5078872;28;19932;-76
2022/05/26 10:20:48;;;;;;;;;;;19.10;60.00;;;;;;5076081;28;19928;-77
2022/05/26 10:23:26;;;;;;;;;;;19.10;60.30;;;;;;5076549;28;20429;-75
2022/05/26 10:25:57;;;;;;;;;;;19.10;59.60;;;;;;5078922;28;19934;-77
2022/05/26 10:28:41;;;;;;;;;;;19.20;59.20;;;;;;5083786;28;19943;-76
2022/05/26 10:31:12;;;;;;;;;;;19.20;59.40;;;;;;5077732;28;19963;-79
2022/05/26 10:33:48;;;;;;;;;;;19.20;59.50;;;;;;5082634;28;19928;-75
2022/05/26 10:36:20;;;;;;;;;;;19.20;59.20;;;;;;5081583;28;19940;-76
2022/05/26 10:39:05;;;;;;;;;;;19.20;59.10;;;;;;5078209;28;19928;-75
2022/05/26 10:41:37;;;;;;;;;;;19.30;59.40;;;;;;5075758;28;21272;-75
2022/05/26 10:44:08;;;;;;;;;;;19.20;59.60;;;;;;5080203;28;19935;-74
2022/05/26 10:46:37;;;;;;;;;;;19.20;59.70;;;;;;5076263;28;19924;-75
2022/05/26 10:49:06;;;;;;;;;;;19.30;59.60;;;;;;5077525;28;19932;-75
2022/05/26 10:51:36;;;;;;;;;;;19.30;59.70;;;;;;5083100;28;20391;-76
2022/05/26 10:54:06;;;;;;;;;;;19.30;60.00;;;;;;5074503;28;19929;-77
2022/05/26 10:56:39;;;;;;;;;;;19.30;59.70;;;;;;5074670;28;20463;-75
2022/05/26 10:59:09;;;;;;;;;;;19.30;59.50;;;;;;5075236;28;19940;-74
2022/05/26 11:01:37;;;;;;;;;;;19.30;59.10;;;;;;5068007;28;20018;-75
2022/05/26 11:04:08;;;;;;;;;;;19.40;59.00;;;;;;5067956;28;19943;-74
2022/05/26 11:06:36;;;;;;;;;;;19.40;59.00;;;;;;5067738;28;19924;-74
2022/05/26 11:09:09;;;;;;;;;;;19.40;58.90;;;;;;5077524;28;19951;-77
2022/05/26 11:11:37;;;;;;;;;;;19.50;58.80;;;;;;5070907;28;20316;-76
2022/05/26 11:14:06;;;;;;;;;;;19.50;58.70;;;;;;5078644;28;19928;-75
2022/05/26 11:19:34;;;;;;;;;;;19.60;58.40;;;;;;5072784;28;20069;-75
2022/05/26 11:22:02;;;;;;;;;;;19.60;58.30;;;;;;5069527;28;19928;-75
2022/05/26 11:24:28;;;;;;;;;;;19.70;58.40;;;;;;5071943;28;19929;-75
2022/05/26 11:26:57;;;;;;;;;;;19.70;58.20;;;;;;5074004;28;19932;-74
2022/05/26 11:29:27;;;;;;;;;;;19.80;58.10;;;;;;5070528;28;19933;-74
2022/05/26 11:37:40;;;;;;;;;;;19.90;58.20;;;;;;5075461;28;20020;-74
2022/05/26 11:40:08;;;;;;;;;;;19.90;58.50;;;;;;5071244;28;19944;-74
2022/05/26 11:42:36;;;;;;;;;;;19.90;58.40;;;;;;5077233;28;19928;-74
2022/05/26 11:45:15;;;;;;;;;;;20.00;58.40;;;;;;5073543;28;19935;-75
2022/05/26 11:47:51;;;;;;;;;;;20.00;58.30;;;;;;5077537;28;19928;-73
2022/05/26 11:50:23;;;;;;;;;;;20.00;58.00;;;;;;5078341;28;19939;-74
2022/05/26 11:53:07;;;;;;;;;;;20.00;58.10;;;;;;5076822;28;19935;-74
2022/05/26 11:55:45;;;;;;;;;;;20.00;58.10;;;;;;5077302;28;19935;-74
2022/05/26 11:58:26;;;;;;;;;;;20.10;57.90;;;;;;5078038;28;20455;-75
2022/05/26 12:01:09;;;;;;;;;;;20.10;58.40;;;;;;5075428;28;19935;-73
2022/05/26 12:03:48;;;;;;;;;;;20.10;58.20;;;;;;5078926;28;19929;-75
2022/05/26 12:06:16;;;;;;;;;;;20.10;58.20;;;;;;5079033;28;19928;-74
2022/05/26 12:08:46;;;;;;;;;;;20.10;58.40;;;;;;5072597;28;19928;-74
2022/05/26 12:11:15;;;;;;;;;;;20.10;58.40;;;;;;5077732;28;20301;-74
2022/05/26 12:13:42;;;;;;;;;;;20.10;58.50;;;;;;5080518;28;19924;-74
2022/05/26 12:16:11;;;;;;;;;;;20.10;58.50;;;;;;5077703;28;19928;-77
2022/05/26 12:18:42;;;;;;;;;;;20.10;58.40;;;;;;5077760;28;19943;-75
2022/05/26 12:21:12;;;;;;;;;;;20.20;58.80;;;;;;5070670;28;19933;-75
2022/05/26 12:23:39;;;;;;;;;;;20.20;59.00;;;;;;5071800;28;19932;-75
2022/05/26 12:26:28;;;;;;;;;;;20.20;58.40;;;;;;5066285;28;19940;-76
2022/05/26 12:28:55;;;;;;;;;;;20.20;58.10;;;;;;5071256;28;19924;-70
2022/05/26 12:31:22;;;;;;;;;;;20.20;58.30;;;;;;5074654;28;19931;-75
2022/05/26 12:34:02;;;;;;;;;;;20.20;58.30;;;;;;5073955;28;20014;-71
2022/05/26 12:36:34;;;;;;;;;;;20.20;58.40;;;;;;5079853;28;20026;-74
2022/05/26 12:39:14;;;;;;;;;;;20.20;58.10;;;;;;5081578;28;19928;-72
2022/05/26 12:41:46;;;;;;;;;;;20.30;57.80;;;;;;5076493;28;19998;-72
2022/05/26 12:44:26;;;;;;;;;;;20.30;57.60;;;;;;5074402;28;19928;-71
2022/05/26 12:46:58;;;;;;;;;;;20.40;57.70;;;;;;5074956;28;19935;-74
2022/05/26 12:49:33;;;;;;;;;;;20.40;57.80;;;;;;5068505;28;19928;-71
2022/05/26 12:52:07;;;;;;;;;;;20.40;57.60;;;;;;5073013;28;19928;-72
2022/05/26 12:54:40;;;;;;;;;;;20.40;57.80;;;;;;5080579;28;19924;-73
2022/05/26 12:57:09;;;;;;;;;;;20.50;58.20;;;;;;5082791;28;19959;-72
2022/05/26 12:59:35;;;;;;;;;;;20.50;58.00;;;;;;5082928;28;20914;-73
2022/05/26 13:02:03;;;;;;;;;;;20.50;57.60;;;;;;5078662;28;19933;-75
2022/05/26 13:04:34;;;;;;;;;;;20.50;57.80;;;;;;5076925;28;19959;-73
2022/05/26 13:07:03;;;;;;;;;;;20.60;58.00;;;;;;5074832;28;19928;-73
2022/05/26 13:09:31;;;;;;;;;;;20.60;58.10;;;;;;5071859;28;20440;-73
2022/05/26 13:12:00;;;;;;;;;;;20.60;57.70;;;;;;5070790;28;19927;-72
2022/05/26 13:14:32;;;;;;;;;;;20.60;57.30;;;;;;5067706;28;19929;-73
2022/05/26 13:16:59;;;;;;;;;;;20.60;57.00;;;;;;5077291;28;19932;-73
2022/05/26 13:19:26;;;;;;;;;;;20.60;56.70;;;;;;5072078;28;20437;-70
2022/05/26 13:21:55;;;;;;;;;;;20.60;56.30;;;;;;5075689;28;19932;-73
2022/05/26 13:24:23;;;;;;;;;;;20.70;56.60;;;;;;5078412;28;19935;-73
2022/05/26 13:26:53;;;;;;;;;;;20.70;56.30;;;;;;5081414;28;19928;-74
2022/05/26 13:29:20;;;;;;;;;;;20.70;56.40;;;;;;5076830;28;19940;-78
2022/05/26 13:34:32;;;;;;;;;;;21.00;55.50;;;;;;5070098;28;19977;-75
2022/05/26 13:37:03;;;;;;;;;;;21.20;55.20;;;;;;5078692;28;19925;-73
2022/05/26 13:39:30;;;;;;;;;;;21.30;54.90;;;;;;5073727;28;19932;-74
2022/05/26 13:41:57;;;;;;;;;;;21.50;54.80;;;;;;5073723;28;19989;-74
2022/05/26 13:44:27;;;;;;;;;;;21.60;54.50;;;;;;5071603;28;19932;-74
2022/05/26 13:46:53;;;;;;;;;;;21.70;54.20;;;;;;5069394;28;19928;-74
2022/05/26 13:49:27;;;;;;;;;;;21.90;54.00;;;;;;5075065;28;19940;-75
2022/05/26 13:51:54;;;;;;;;;;;22.00;53.60;;;;;;5070468;28;19932;-74
2022/05/26 13:54:29;;;;;;;;;;;22.10;53.50;;;;;;5071834;28;19939;-74
2022/05/26 13:56:56;;;;;;;;;;;22.10;53.10;;;;;;5077804;28;19950;-74
2022/05/26 13:59:24;;;;;;;;;;;22.30;53.00;;;;;;5066602;28;19935;-75
2022/05/26 14:01:51;;;;;;;;;;;22.40;52.60;;;;;;5072237;28;19928;-74
2022/05/26 14:04:23;;;;;;;;;;;22.40;52.30;;;;;;5073177;28;20298;-71
2022/05/26 14:06:50;;;;;;;;;;;22.50;52.30;;;;;;5072340;28;20005;-71
2022/05/26 14:09:27;;;;;;;;;;;22.50;52.20;;;;;;5075213;28;19972;-71
2022/05/26 14:12:03;;;;;;;;;;;22.60;51.80;;;;;;5075280;28;19932;-73
2022/05/26 14:14:31;;;;;;;;;;;22.60;51.60;;;;;;5075163;28;19932;-74
2022/05/26 14:16:59;;;;;;;;;;;22.70;51.40;;;;;;5066881;28;19939;-74
2022/05/26 14:19:28;;;;;;;;;;;22.70;51.50;;;;;;5073244;28;19924;-73
2022/05/26 14:21:55;;;;;;;;;;;22.80;51.40;;;;;;5066233;28;19924;-75
2022/05/26 14:24:27;;;;;;;;;;;22.80;51.30;;;;;;5064493;28;20015;-75
2022/05/26 14:27:03;;;;;;;;;;;22.80;51.20;;;;;;5064629;28;19959;-72
2022/05/26 14:29:34;;;;;;;;;;;22.90;51.00;;;;;;5067641;28;19929;-75
2022/05/26 14:32:08;;;;;;;;;;;22.90;50.90;;;;;;5073411;28;19929;-74
2022/05/26 14:34:35;;;;;;;;;;;23.00;50.70;;;;;;5071565;28;19971;-74
2022/05/26 14:37:02;;;;;;;;;;;23.00;50.60;;;;;;5074290;28;19932;-75
2022/05/26 14:39:29;;;;;;;;;;;23.10;50.80;;;;;;5072675;28;20392;-73
2022/05/26 14:41:56;;;;;;;;;;;23.10;50.50;;;;;;5075403;28;19932;-72
2022/05/26 14:44:24;;;;;;;;;;;23.10;50.30;;;;;;5073134;28;19931;-74
2022/05/26 14:46:51;;;;;;;;;;;23.20;50.20;;;;;;5070062;28;19932;-74
2022/05/26 14:49:18;;;;;;;;;;;23.20;50.00;;;;;;5072393;28;19928;-73
2022/05/26 14:51:47;;;;;;;;;;;23.20;49.60;;;;;;5070910;28;19928;-74
2022/05/26 14:56:59;;;;;;;;;;;23.30;50.00;;;;;;5071269;28;19945;-73
2022/05/26 14:59:27;;;;;;;;;;;23.40;49.90;;;;;;5074373;28;19932;-72
2022/05/26 15:01:53;;;;;;;;;;;23.40;49.70;;;;;;5069525;28;20656;-72
2022/05/26 15:04:20;;;;;;;;;;;23.40;50.80;;;;;;5070615;28;19936;-74
2022/05/26 15:06:47;;;;;;;;;;;23.50;50.90;;;;;;5067224;28;19932;-73